sensor_id;sensor_type;location;lat;lon;timestamp;pressure;altitude;pressure_sealevel;temperature;humidity
11682;BME280;5897;42.640;23.310;2023-02-22T00:01:09;93860.66;;;10.91;41.96
11682;BME280;5897;42.640;23.310;2023-02-22T00:03:49;93867.13;;;10.81;42.22
11682;BME280;5897;42.640;23.310;2023-02-22T00:06:20;93864.72;;;10.83;41.75
11682;BME280;5897;42.640;23.310;2023-02-22T00:08:49;93862.75;;;10.71;42.38
11682;BME280;5897;42.640;23.310;2023-02-22T00:11:17;93869.13;;;10.65;42.63
11682;BME280;5897;42.640;23.310;2023-02-22T00:13:45;93875.94;;;10.69;42.40
11682;BME280;5897;42.640;23.310;2023-02-22T00:16:15;93878.75;;;10.66;42.61
11682;BME280;5897;42.640;23.310;2023-02-22T00:18:42;93879.78;;;10.56;43.15
11682;BME280;5897;42.640;23.310;2023-02-22T00:21:12;93870.81;;;10.30;43.32
11682;BME280;5897;42.640;23.310;2023-02-22T00:23:43;93874.81;;;10.26;43.52
11682;BME280;5897;42.640;23.310;2023-02-22T00:26:11;93866.41;;;10.08;43.65
11682;BME280;5897;42.640;23.310;2023-02-22T00:28:38;93875.34;;;10.05;44.33
11682;BME280;5897;42.640;23.310;2023-02-22T00:31:07;93870.75;;;10.02;44.34
11682;BME280;5897;42.640;23.310;2023-02-22T00:33:34;93872.00;;;9.97;44.36
11682;BME280;5897;42.640;23.310;2023-02-22T00:36:01;93873.56;;;9.82;45.09
11682;BME280;5897;42.640;23.310;2023-02-22T00:38:30;93859.81;;;9.45;45.71
11682;BME280;5897;42.640;23.310;2023-02-22T00:40:56;93852.13;;;9.43;45.39
11682;BME280;5897;42.640;23.310;2023-02-22T00:43:23;93847.22;;;9.22;46.29
11682;BME280;5897;42.640;23.310;2023-02-22T00:45:50;93854.81;;;9.27;46.40
11682;BME280;5897;42.640;23.310;2023-02-22T00:48:18;93834.19;;;9.01;46.83
11682;BME280;5897;42.640;23.310;2023-02-22T00:50:45;93849.13;;;9.06;47.02
11682;BME280;5897;42.640;23.310;2023-02-22T00:53:14;93842.25;;;8.85;47.70
11682;BME280;5897;42.640;23.310;2023-02-22T00:55:42;93847.41;;;8.96;46.98
11682;BME280;5897;42.640;23.310;2023-02-22T00:58:09;93839.59;;;9.01;47.15
11682;BME280;5897;42.640;23.310;2023-02-22T01:00:38;93842.06;;;9.12;46.94
11682;BME280;5897;42.640;23.310;2023-02-22T01:03:07;93834.84;;;9.25;46.50
11682;BME280;5897;42.640;23.310;2023-02-22T01:05:35;93837.16;;;9.42;46.79
11682;BME280;5897;42.640;23.310;2023-02-22T01:08:03;93836.97;;;9.33;47.19
11682;BME280;5897;42.640;23.310;2023-02-22T01:10:31;93831.53;;;9.17;47.84
11682;BME280;5897;42.640;23.310;2023-02-22T01:13:01;93830.34;;;9.18;47.86
11682;BME280;5897;42.640;23.310;2023-02-22T01:15:33;93818.38;;;9.03;47.96
11682;BME280;5897;42.640;23.310;2023-02-22T01:18:01;93812.91;;;8.71;49.18
11682;BME280;5897;42.640;23.310;2023-02-22T01:20:31;93828.91;;;8.78;48.83
11682;BME280;5897;42.640;23.310;2023-02-22T01:23:00;93820.13;;;8.58;49.32
11682;BME280;5897;42.640;23.310;2023-02-22T01:25:31;93826.69;;;8.57;49.38
11682;BME280;5897;42.640;23.310;2023-02-22T01:28:01;93811.16;;;8.45;49.59
11682;BME280;5897;42.640;23.310;2023-02-22T01:30:29;93820.66;;;8.69;48.54
11682;BME280;5897;42.640;23.310;2023-02-22T01:32:58;93811.78;;;8.88;48.16
11682;BME280;5897;42.640;23.310;2023-02-22T01:35:28;93808.22;;;9.11;46.75
11682;BME280;5897;42.640;23.310;2023-02-22T01:37:55;93802.25;;;9.35;46.10
11682;BME280;5897;42.640;23.310;2023-02-22T01:40:25;93806.53;;;9.65;44.93
11682;BME280;5897;42.640;23.310;2023-02-22T01:42:54;93806.03;;;9.86;44.70
11682;BME280;5897;42.640;23.310;2023-02-22T01:45:53;93812.84;;;9.90;44.67
11682;BME280;5897;42.640;23.310;2023-02-22T01:48:26;93813.53;;;9.78;44.84
11682;BME280;5897;42.640;23.310;2023-02-22T01:50:56;93802.06;;;9.74;44.77
11682;BME280;5897;42.640;23.310;2023-02-22T01:53:28;93814.94;;;9.83;44.56
11682;BME280;5897;42.640;23.310;2023-02-22T01:55:58;93814.53;;;9.84;44.55
11682;BME280;5897;42.640;23.310;2023-02-22T01:58:27;93812.69;;;9.81;44.55
11682;BME280;5897;42.640;23.310;2023-02-22T02:00:57;93819.75;;;9.91;44.27
11682;BME280;5897;42.640;23.310;2023-02-22T02:03:25;93821.78;;;9.87;44.42
11682;BME280;5897;42.640;23.310;2023-02-22T02:05:56;93816.56;;;9.80;44.84
11682;BME280;5897;42.640;23.310;2023-02-22T02:08:32;93818.16;;;9.78;45.60
11682;BME280;5897;42.640;23.310;2023-02-22T02:11:02;93817.19;;;9.56;45.93
11682;BME280;5897;42.640;23.310;2023-02-22T02:13:30;93816.31;;;9.59;46.30
11682;BME280;5897;42.640;23.310;2023-02-22T02:15:58;93812.84;;;9.58;46.43
11682;BME280;5897;42.640;23.310;2023-02-22T02:18:26;93801.41;;;9.38;46.95
11682;BME280;5897;42.640;23.310;2023-02-22T02:24:16;93808.97;;;9.27;47.67
11682;BME280;5897;42.640;23.310;2023-02-22T02:27:10;93815.66;;;9.23;48.08
11682;BME280;5897;42.640;23.310;2023-02-22T02:32:47;93829.34;;;8.96;48.48
11682;BME280;5897;42.640;23.310;2023-02-22T02:35:25;93832.31;;;8.82;48.93
11682;BME280;5897;42.640;23.310;2023-02-22T02:37:58;93827.94;;;8.88;48.71
11682;BME280;5897;42.640;23.310;2023-02-22T02:40:32;93845.22;;;8.91;49.21
11682;BME280;5897;42.640;23.310;2023-02-22T02:43:06;93841.34;;;8.92;49.04
11682;BME280;5897;42.640;23.310;2023-02-22T02:45:43;93838.06;;;9.00;48.69
11682;BME280;5897;42.640;23.310;2023-02-22T02:48:14;93840.09;;;8.96;49.04
11682;BME280;5897;42.640;23.310;2023-02-22T02:50:46;93834.53;;;8.87;49.08
11682;BME280;5897;42.640;23.310;2023-02-22T02:53:17;93848.41;;;8.86;49.42
11682;BME280;5897;42.640;23.310;2023-02-22T02:55:45;93847.28;;;8.83;49.33
11682;BME280;5897;42.640;23.310;2023-02-22T02:58:18;93849.66;;;8.62;50.13
11682;BME280;5897;42.640;23.310;2023-02-22T03:00:46;93848.16;;;8.61;50.33
11682;BME280;5897;42.640;23.310;2023-02-22T03:06:34;93845.69;;;8.50;50.40
11682;BME280;5897;42.640;23.310;2023-02-22T03:09:11;93840.69;;;8.49;50.25
11682;BME280;5897;42.640;23.310;2023-02-22T03:11:48;93846.00;;;8.33;51.01
11682;BME280;5897;42.640;23.310;2023-02-22T03:14:24;93842.28;;;8.04;52.62
11682;BME280;5897;42.640;23.310;2023-02-22T03:17:00;93837.16;;;7.67;53.71
11682;BME280;5897;42.640;23.310;2023-02-22T03:19:34;93846.06;;;7.64;54.21
11682;BME280;5897;42.640;23.310;2023-02-22T03:22:08;93836.88;;;7.38;55.19
11682;BME280;5897;42.640;23.310;2023-02-22T03:24:40;93837.88;;;7.48;55.24
11682;BME280;5897;42.640;23.310;2023-02-22T03:27:13;93828.16;;;7.54;54.20
11682;BME280;5897;42.640;23.310;2023-02-22T03:29:44;93843.13;;;7.78;53.85
11682;BME280;5897;42.640;23.310;2023-02-22T03:32:14;93833.84;;;7.82;53.45
11682;BME280;5897;42.640;23.310;2023-02-22T03:34:47;93846.13;;;7.83;53.93
11682;BME280;5897;42.640;23.310;2023-02-22T03:37:19;93834.00;;;7.95;52.95
11682;BME280;5897;42.640;23.310;2023-02-22T03:39:50;93838.66;;;8.14;52.56
11682;BME280;5897;42.640;23.310;2023-02-22T03:42:20;93842.41;;;8.20;52.26
11682;BME280;5897;42.640;23.310;2023-02-22T03:44:52;93848.53;;;8.20;52.45
11682;BME280;5897;42.640;23.310;2023-02-22T03:47:28;93841.97;;;8.21;52.56
11682;BME280;5897;42.640;23.310;2023-02-22T03:50:02;93843.19;;;8.17;52.92
11682;BME280;5897;42.640;23.310;2023-02-22T03:52:32;93837.94;;;8.33;51.89
11682;BME280;5897;42.640;23.310;2023-02-22T03:55:01;93840.88;;;8.38;52.11
11682;BME280;5897;42.640;23.310;2023-02-22T03:57:31;93844.56;;;8.28;52.45
11682;BME280;5897;42.640;23.310;2023-02-22T04:00:01;93845.94;;;8.36;51.88
11682;BME280;5897;42.640;23.310;2023-02-22T04:02:30;93835.81;;;8.44;51.67
11682;BME280;5897;42.640;23.310;2023-02-22T04:04:58;93838.00;;;8.49;51.44
11682;BME280;5897;42.640;23.310;2023-02-22T04:07:25;93833.81;;;8.48;51.62
11682;BME280;5897;42.640;23.310;2023-02-22T04:09:52;93836.34;;;8.55;51.20
11682;BME280;5897;42.640;23.310;2023-02-22T04:12:19;93827.72;;;8.63;51.27
11682;BME280;5897;42.640;23.310;2023-02-22T04:14:45;93830.00;;;8.65;51.02
11682;BME280;5897;42.640;23.310;2023-02-22T04:17:12;93833.84;;;8.44;52.33
11682;BME280;5897;42.640;23.310;2023-02-22T04:19:39;93827.88;;;8.56;51.81
11682;BME280;5897;42.640;23.310;2023-02-22T04:22:07;93823.50;;;8.62;51.35
11682;BME280;5897;42.640;23.310;2023-02-22T04:24:34;93832.47;;;8.75;50.99
11682;BME280;5897;42.640;23.310;2023-02-22T04:27:01;93832.66;;;8.84;50.61
11682;BME280;5897;42.640;23.310;2023-02-22T04:29:28;93826.09;;;8.85;50.33
11682;BME280;5897;42.640;23.310;2023-02-22T04:31:55;93838.53;;;8.99;49.99
11682;BME280;5897;42.640;23.310;2023-02-22T04:34:21;93830.69;;;9.04;51.83
11682;BME280;5897;42.640;23.310;2023-02-22T04:36:48;93839.19;;;9.03;50.97
11682;BME280;5897;42.640;23.310;2023-02-22T04:39:16;93841.38;;;9.08;50.03
11682;BME280;5897;42.640;23.310;2023-02-22T04:41:43;93848.38;;;9.05;50.15
11682;BME280;5897;42.640;23.310;2023-02-22T04:44:12;93851.47;;;9.04;50.13
11682;BME280;5897;42.640;23.310;2023-02-22T04:46:38;93843.94;;;8.95;50.04
11682;BME280;5897;42.640;23.310;2023-02-22T04:49:05;93843.94;;;8.95;50.51
11682;BME280;5897;42.640;23.310;2023-02-22T04:51:32;93845.41;;;9.00;50.61
11682;BME280;5897;42.640;23.310;2023-02-22T04:54:00;93840.88;;;8.77;51.67
11682;BME280;5897;42.640;23.310;2023-02-22T04:56:28;93837.22;;;8.68;51.88
11682;BME280;5897;42.640;23.310;2023-02-22T04:58:55;93833.81;;;8.28;52.91
11682;BME280;5897;42.640;23.310;2023-02-22T05:01:22;93839.84;;;8.32;53.06
11682;BME280;5897;42.640;23.310;2023-02-22T05:03:49;93822.00;;;8.19;53.57
11682;BME280;5897;42.640;23.310;2023-02-22T05:06:17;93834.59;;;8.25;54.04
11682;BME280;5897;42.640;23.310;2023-02-22T05:08:44;93833.63;;;8.16;54.65
11682;BME280;5897;42.640;23.310;2023-02-22T05:11:10;93841.56;;;8.23;55.23
11682;BME280;5897;42.640;23.310;2023-02-22T05:13:39;93833.91;;;8.21;55.18
11682;BME280;5897;42.640;23.310;2023-02-22T05:16:06;93844.06;;;8.10;55.57
11682;BME280;5897;42.640;23.310;2023-02-22T05:18:33;93842.56;;;8.09;55.70
11682;BME280;5897;42.640;23.310;2023-02-22T05:21:00;93855.53;;;8.14;55.73
11682;BME280;5897;42.640;23.310;2023-02-22T05:23:27;93855.53;;;8.14;55.65
11682;BME280;5897;42.640;23.310;2023-02-22T05:25:53;93857.19;;;8.08;56.21
11682;BME280;5897;42.640;23.310;2023-02-22T05:28:20;93849.97;;;8.05;56.31
11682;BME280;5897;42.640;23.310;2023-02-22T05:30:49;93872.63;;;8.04;56.39
11682;BME280;5897;42.640;23.310;2023-02-22T05:33:15;93864.22;;;8.02;56.39
11682;BME280;5897;42.640;23.310;2023-02-22T05:35:42;93865.84;;;7.96;56.10
11682;BME280;5897;42.640;23.310;2023-02-22T05:38:11;93876.56;;;8.00;56.06
11682;BME280;5897;42.640;23.310;2023-02-22T05:40:39;93872.56;;;7.85;56.47
11682;BME280;5897;42.640;23.310;2023-02-22T05:43:06;93881.94;;;8.00;56.54
11682;BME280;5897;42.640;23.310;2023-02-22T05:45:33;93877.03;;;7.95;56.83
11682;BME280;5897;42.640;23.310;2023-02-22T05:48:02;93882.28;;;8.02;56.99
11682;BME280;5897;42.640;23.310;2023-02-22T05:50:29;93891.59;;;7.97;57.70
11682;BME280;5897;42.640;23.310;2023-02-22T05:52:57;93898.06;;;8.00;57.68
11682;BME280;5897;42.640;23.310;2023-02-22T05:55:24;93879.84;;;7.88;57.61
11682;BME280;5897;42.640;23.310;2023-02-22T05:57:52;93883.75;;;7.83;57.33
11682;BME280;5897;42.640;23.310;2023-02-22T06:00:22;93888.97;;;7.94;56.93
11682;BME280;5897;42.640;23.310;2023-02-22T06:02:54;93892.75;;;7.96;56.80
11682;BME280;5897;42.640;23.310;2023-02-22T06:05:22;93885.75;;;8.02;55.99
11682;BME280;5897;42.640;23.310;2023-02-22T06:07:49;93886.44;;;8.06;55.89
11682;BME280;5897;42.640;23.310;2023-02-22T06:10:17;93894.72;;;8.15;56.00
11682;BME280;5897;42.640;23.310;2023-02-22T06:12:44;93902.72;;;8.22;55.83
11682;BME280;5897;42.640;23.310;2023-02-22T06:15:11;93896.75;;;8.34;55.23
11682;BME280;5897;42.640;23.310;2023-02-22T06:17:38;93893.97;;;8.38;55.57
11682;BME280;5897;42.640;23.310;2023-02-22T06:20:07;93901.78;;;8.52;56.07
11682;BME280;5897;42.640;23.310;2023-02-22T06:22:35;93900.00;;;8.65;55.78
11682;BME280;5897;42.640;23.310;2023-02-22T06:25:02;93903.19;;;8.79;54.82
11682;BME280;5897;42.640;23.310;2023-02-22T06:27:30;93913.19;;;8.98;54.63
11682;BME280;5897;42.640;23.310;2023-02-22T06:29:57;93889.03;;;8.75;52.18
11682;BME280;5897;42.640;23.310;2023-02-22T06:32:24;93892.03;;;8.97;52.34
11682;BME280;5897;42.640;23.310;2023-02-22T06:34:51;93899.41;;;9.12;51.55
11682;BME280;5897;42.640;23.310;2023-02-22T06:37:18;93891.03;;;9.26;51.45
11682;BME280;5897;42.640;23.310;2023-02-22T06:39:46;93891.31;;;9.48;50.94
11682;BME280;5897;42.640;23.310;2023-02-22T06:42:13;93882.16;;;9.61;50.51
11682;BME280;5897;42.640;23.310;2023-02-22T06:44:40;93875.06;;;9.83;50.31
11682;BME280;5897;42.640;23.310;2023-02-22T06:47:07;93874.38;;;9.95;50.15
11682;BME280;5897;42.640;23.310;2023-02-22T06:49:34;93883.50;;;10.33;49.84
11682;BME280;5897;42.640;23.310;2023-02-22T06:52:03;93882.44;;;10.43;49.41
11682;BME280;5897;42.640;23.310;2023-02-22T06:54:30;93889.47;;;10.69;48.77
11682;BME280;5897;42.640;23.310;2023-02-22T06:56:58;93841.84;;;10.47;47.74
11682;BME280;5897;42.640;23.310;2023-02-22T06:59:25;93897.72;;;10.91;47.10
11682;BME280;5897;42.640;23.310;2023-02-22T07:01:52;93884.00;;;10.85;46.72
11682;BME280;5897;42.640;23.310;2023-02-22T07:04:19;93903.69;;;10.98;46.82
11682;BME280;5897;42.640;23.310;2023-02-22T07:06:48;93897.81;;;11.16;49.60
11682;BME280;5897;42.640;23.310;2023-02-22T07:09:17;93908.88;;;11.34;56.60
11682;BME280;5897;42.640;23.310;2023-02-22T07:11:44;93908.97;;;11.43;48.22
11682;BME280;5897;42.640;23.310;2023-02-22T07:14:12;93907.03;;;11.43;49.92
11682;BME280;5897;42.640;23.310;2023-02-22T07:16:41;93898.94;;;11.68;53.04
11682;BME280;5897;42.640;23.310;2023-02-22T07:19:08;93894.50;;;11.87;51.53
11682;BME280;5897;42.640;23.310;2023-02-22T07:21:35;93901.59;;;12.18;55.21
11682;BME280;5897;42.640;23.310;2023-02-22T07:24:02;93891.72;;;12.36;48.46
11682;BME280;5897;42.640;23.310;2023-02-22T07:26:29;93900.56;;;12.49;44.28
11682;BME280;5897;42.640;23.310;2023-02-22T07:28:56;93902.34;;;12.65;43.88
11682;BME280;5897;42.640;23.310;2023-02-22T07:31:40;93907.06;;;12.39;45.51
11682;BME280;5897;42.640;23.310;2023-02-22T07:34:07;93907.44;;;12.63;42.94
11682;BME280;5897;42.640;23.310;2023-02-22T07:36:34;93882.09;;;12.57;43.22
11682;BME280;5897;42.640;23.310;2023-02-22T07:39:00;93907.53;;;12.72;42.42
11682;BME280;5897;42.640;23.310;2023-02-22T07:41:27;93900.09;;;12.85;42.18
11682;BME280;5897;42.640;23.310;2023-02-22T07:43:54;93908.81;;;13.01;41.53
11682;BME280;5897;42.640;23.310;2023-02-22T07:46:21;93903.41;;;13.01;41.18
11682;BME280;5897;42.640;23.310;2023-02-22T07:48:49;93907.19;;;13.04;40.58
11682;BME280;5897;42.640;23.310;2023-02-22T07:51:16;93891.16;;;12.97;41.00
11682;BME280;5897;42.640;23.310;2023-02-22T07:53:45;93892.19;;;13.12;41.51
11682;BME280;5897;42.640;23.310;2023-02-22T07:56:12;93888.13;;;13.16;42.53
11682;BME280;5897;42.640;23.310;2023-02-22T07:58:38;93894.53;;;13.53;41.01
11682;BME280;5897;42.640;23.310;2023-02-22T08:01:05;93886.31;;;13.44;40.95
11682;BME280;5897;42.640;23.310;2023-02-22T08:03:33;93884.81;;;13.73;40.88
11682;BME280;5897;42.640;23.310;2023-02-22T08:06:03;93876.91;;;14.06;40.15
11682;BME280;5897;42.640;23.310;2023-02-22T08:08:30;93878.75;;;14.18;40.14
11682;BME280;5897;42.640;23.310;2023-02-22T08:10:58;93885.63;;;14.40;39.46
11682;BME280;5897;42.640;23.310;2023-02-22T08:13:25;93861.00;;;14.44;39.83
11682;BME280;5897;42.640;23.310;2023-02-22T08:15:52;93876.41;;;14.74;37.83
11682;BME280;5897;42.640;23.310;2023-02-22T08:18:21;93875.38;;;14.80;38.49
11682;BME280;5897;42.640;23.310;2023-02-22T08:20:49;93883.38;;;14.93;38.18
11682;BME280;5897;42.640;23.310;2023-02-22T08:23:20;93878.66;;;15.11;37.42
11682;BME280;5897;42.640;23.310;2023-02-22T08:25:49;93879.69;;;15.41;37.10
11682;BME280;5897;42.640;23.310;2023-02-22T08:28:18;93893.72;;;15.57;37.40
11682;BME280;5897;42.640;23.310;2023-02-22T08:30:47;93886.97;;;15.35;37.25
11682;BME280;5897;42.640;23.310;2023-02-22T08:33:14;93886.59;;;15.60;36.72
11682;BME280;5897;42.640;23.310;2023-02-22T08:35:44;93883.25;;;15.65;36.22
11682;BME280;5897;42.640;23.310;2023-02-22T08:38:19;93881.34;;;15.89;36.15
11682;BME280;5897;42.640;23.310;2023-02-22T08:40:47;93870.22;;;16.10;35.49
11682;BME280;5897;42.640;23.310;2023-02-22T08:43:14;93871.44;;;16.33;35.40
11682;BME280;5897;42.640;23.310;2023-02-22T08:45:42;93873.03;;;16.48;34.91
11682;BME280;5897;42.640;23.310;2023-02-22T08:48:09;93880.44;;;16.71;34.45
11682;BME280;5897;42.640;23.310;2023-02-22T08:50:36;93875.78;;;16.86;34.21
11682;BME280;5897;42.640;23.310;2023-02-22T08:53:06;93871.31;;;16.98;33.79
11682;BME280;5897;42.640;23.310;2023-02-22T08:55:36;93868.31;;;17.25;33.71
11682;BME280;5897;42.640;23.310;2023-02-22T08:58:04;93869.56;;;17.53;32.68
11682;BME280;5897;42.640;23.310;2023-02-22T09:00:34;93860.81;;;17.49;33.18
11682;BME280;5897;42.640;23.310;2023-02-22T09:03:04;93868.22;;;17.77;32.55
11682;BME280;5897;42.640;23.310;2023-02-22T09:05:32;93865.47;;;17.92;32.10
11682;BME280;5897;42.640;23.310;2023-02-22T09:08:00;93861.25;;;17.91;32.46
11682;BME280;5897;42.640;23.310;2023-02-22T09:10:29;93863.84;;;18.14;32.05
11682;BME280;5897;42.640;23.310;2023-02-22T09:12:59;93863.88;;;18.34;31.91
11682;BME280;5897;42.640;23.310;2023-02-22T09:15:27;93862.22;;;18.57;31.33
11682;BME280;5897;42.640;23.310;2023-02-22T09:17:54;93842.03;;;18.20;30.40
11682;BME280;5897;42.640;23.310;2023-02-22T09:20:22;93853.91;;;18.31;32.06
11682;BME280;5897;42.640;23.310;2023-02-22T09:22:50;93854.75;;;18.23;31.38
11682;BME280;5897;42.640;23.310;2023-02-22T09:25:18;93858.16;;;18.18;31.07
11682;BME280;5897;42.640;23.310;2023-02-22T09:27:46;93853.13;;;18.31;31.63
11682;BME280;5897;42.640;23.310;2023-02-22T09:30:23;93855.56;;;18.43;37.02
11682;BME280;5897;42.640;23.310;2023-02-22T09:32:55;93857.81;;;18.45;31.26
11682;BME280;5897;42.640;23.310;2023-02-22T09:35:23;93849.63;;;18.65;36.12
11682;BME280;5897;42.640;23.310;2023-02-22T09:37:55;93850.69;;;18.73;31.27
11682;BME280;5897;42.640;23.310;2023-02-22T09:40:23;93853.47;;;18.98;30.26
11682;BME280;5897;42.640;23.310;2023-02-22T09:43:10;93850.47;;;18.96;30.66
11682;BME280;5897;42.640;23.310;2023-02-22T09:45:48;93848.91;;;18.90;30.14
11682;BME280;5897;42.640;23.310;2023-02-22T09:48:20;93831.13;;;18.80;30.01
11682;BME280;5897;42.640;23.310;2023-02-22T09:50:51;93852.75;;;18.98;29.95
11682;BME280;5897;42.640;23.310;2023-02-22T09:53:23;93843.97;;;19.14;29.70
11682;BME280;5897;42.640;23.310;2023-02-22T09:55:57;93847.97;;;19.18;29.99
11682;BME280;5897;42.640;23.310;2023-02-22T09:58:30;93845.38;;;19.29;30.03
11682;BME280;5897;42.640;23.310;2023-02-22T10:01:08;93843.34;;;19.24;29.79
11682;BME280;5897;42.640;23.310;2023-02-22T10:03:47;93815.56;;;19.37;29.76
11682;BME280;5897;42.640;23.310;2023-02-22T10:06:19;93837.03;;;19.69;28.72
11682;BME280;5897;42.640;23.310;2023-02-22T10:08:47;93826.53;;;19.68;28.72
11682;BME280;5897;42.640;23.310;2023-02-22T10:11:32;93828.47;;;19.62;28.85
11682;BME280;5897;42.640;23.310;2023-02-22T10:14:10;93819.72;;;19.58;28.89
11682;BME280;5897;42.640;23.310;2023-02-22T10:16:51;93803.69;;;19.82;29.32
11682;BME280;5897;42.640;23.310;2023-02-22T10:19:26;93806.00;;;19.89;28.97
11682;BME280;5897;42.640;23.310;2023-02-22T10:24:55;93790.28;;;20.26;28.78
11682;BME280;5897;42.640;23.310;2023-02-22T10:27:29;93793.91;;;20.48;28.68
11682;BME280;5897;42.640;23.310;2023-02-22T10:30:03;93787.31;;;20.82;28.04
11682;BME280;5897;42.640;23.310;2023-02-22T10:32:41;93776.88;;;20.97;26.97
11682;BME280;5897;42.640;23.310;2023-02-22T10:35:19;93773.13;;;21.06;26.74
11682;BME280;5897;42.640;23.310;2023-02-22T10:37:48;93758.16;;;21.18;27.35
11682;BME280;5897;42.640;23.310;2023-02-22T10:40:22;93762.19;;;21.39;27.45
11682;BME280;5897;42.640;23.310;2023-02-22T10:42:57;93755.47;;;21.45;27.05
11682;BME280;5897;42.640;23.310;2023-02-22T10:45:28;93746.22;;;21.54;26.88
11682;BME280;5897;42.640;23.310;2023-02-22T10:48:02;93753.69;;;21.92;24.74
11682;BME280;5897;42.640;23.310;2023-02-22T10:50:34;93751.94;;;21.56;25.68
11682;BME280;5897;42.640;23.310;2023-02-22T10:53:02;93747.22;;;21.78;25.62
11682;BME280;5897;42.640;23.310;2023-02-22T10:55:29;93744.94;;;21.93;25.70
11682;BME280;5897;42.640;23.310;2023-02-22T10:58:02;93740.63;;;22.25;25.22
11682;BME280;5897;42.640;23.310;2023-02-22T11:00:33;93747.47;;;21.75;25.96
11682;BME280;5897;42.640;23.310;2023-02-22T11:03:05;93741.63;;;22.17;25.55
11682;BME280;5897;42.640;23.310;2023-02-22T11:05:42;93744.81;;;22.32;25.62
11682;BME280;5897;42.640;23.310;2023-02-22T11:08:22;93737.50;;;22.62;24.18
11682;BME280;5897;42.640;23.310;2023-02-22T11:10:50;93723.84;;;22.23;24.18
11682;BME280;5897;42.640;23.310;2023-02-22T11:13:23;93730.47;;;22.66;24.17
11682;BME280;5897;42.640;23.310;2023-02-22T11:15:51;93710.31;;;22.88;23.99
11682;BME280;5897;42.640;23.310;2023-02-22T11:18:26;93731.72;;;23.06;23.92
11682;BME280;5897;42.640;23.310;2023-02-22T11:21:05;93727.88;;;22.85;23.91
11682;BME280;5897;42.640;23.310;2023-02-22T11:23:35;93720.34;;;23.26;23.63
11682;BME280;5897;42.640;23.310;2023-02-22T11:26:06;93715.38;;;23.83;22.90
11682;BME280;5897;42.640;23.310;2023-02-22T11:28:35;93713.44;;;24.02;22.28
11682;BME280;5897;42.640;23.310;2023-02-22T11:31:12;93707.25;;;23.91;22.10
11682;BME280;5897;42.640;23.310;2023-02-22T11:33:46;93703.25;;;24.16;22.05
11682;BME280;5897;42.640;23.310;2023-02-22T11:36:32;93700.22;;;23.95;21.78
11682;BME280;5897;42.640;23.310;2023-02-22T11:39:02;93706.09;;;23.22;22.38
11682;BME280;5897;42.640;23.310;2023-02-22T11:41:31;93707.38;;;23.50;22.81
11682;BME280;5897;42.640;23.310;2023-02-22T11:44:12;93704.34;;;23.54;22.03
11682;BME280;5897;42.640;23.310;2023-02-22T11:46:41;93699.31;;;23.23;22.48
11682;BME280;5897;42.640;23.310;2023-02-22T11:49:12;93696.94;;;22.62;22.46
11682;BME280;5897;42.640;23.310;2023-02-22T11:52:03;93697.34;;;22.15;23.07
11682;BME280;5897;42.640;23.310;2023-02-22T11:57:41;93690.25;;;21.73;23.29
11682;BME280;5897;42.640;23.310;2023-02-22T12:00:19;93689.19;;;21.93;24.27
11682;BME280;5897;42.640;23.310;2023-02-22T12:03:06;93683.97;;;22.52;23.44
11682;BME280;5897;42.640;23.310;2023-02-22T12:08:41;93670.16;;;23.86;22.30
11682;BME280;5897;42.640;23.310;2023-02-22T12:11:15;93676.06;;;24.01;22.52
11682;BME280;5897;42.640;23.310;2023-02-22T12:14:00;93674.25;;;24.70;21.33
11682;BME280;5897;42.640;23.310;2023-02-22T12:16:41;93669.72;;;24.30;21.28
11682;BME280;5897;42.640;23.310;2023-02-22T12:19:14;93663.25;;;24.65;21.77
11682;BME280;5897;42.640;23.310;2023-02-22T12:21:53;93655.13;;;25.22;20.46
11682;BME280;5897;42.640;23.310;2023-02-22T12:24:24;93653.25;;;25.30;20.01
11682;BME280;5897;42.640;23.310;2023-02-22T12:26:58;93662.78;;;24.98;19.49
11682;BME280;5897;42.640;23.310;2023-02-22T12:29:28;93652.13;;;24.89;20.04
11682;BME280;5897;42.640;23.310;2023-02-22T12:32:01;93659.41;;;24.31;20.68
11682;BME280;5897;42.640;23.310;2023-02-22T12:34:35;93655.19;;;24.06;20.74
11682;BME280;5897;42.640;23.310;2023-02-22T12:37:12;93642.94;;;24.01;21.12
11682;BME280;5897;42.640;23.310;2023-02-22T12:39:48;93644.63;;;24.47;20.68
11682;BME280;5897;42.640;23.310;2023-02-22T12:42:23;93634.19;;;24.95;20.70
11682;BME280;5897;42.640;23.310;2023-02-22T12:44:54;93634.66;;;25.31;20.21
11682;BME280;5897;42.640;23.310;2023-02-22T12:47:30;93631.53;;;25.66;19.15
11682;BME280;5897;42.640;23.310;2023-02-22T12:50:04;93639.31;;;25.67;19.51
11682;BME280;5897;42.640;23.310;2023-02-22T12:52:43;93644.00;;;25.28;19.84
11682;BME280;5897;42.640;23.310;2023-02-22T12:55:16;93640.06;;;25.05;20.36
11682;BME280;5897;42.640;23.310;2023-02-22T12:57:49;93639.34;;;24.86;21.00
11682;BME280;5897;42.640;23.310;2023-02-22T13:00:21;93629.31;;;25.33;20.46
11682;BME280;5897;42.640;23.310;2023-02-22T13:02:59;93613.50;;;25.46;20.22
11682;BME280;5897;42.640;23.310;2023-02-22T13:05:29;93629.63;;;25.87;19.41
11682;BME280;5897;42.640;23.310;2023-02-22T13:08:12;93630.91;;;25.86;19.85
11682;BME280;5897;42.640;23.310;2023-02-22T13:10:55;93630.31;;;25.93;19.97
11682;BME280;5897;42.640;23.310;2023-02-22T13:13:28;93622.59;;;26.38;19.21
11682;BME280;5897;42.640;23.310;2023-02-22T13:16:01;93624.59;;;26.63;19.48
11682;BME280;5897;42.640;23.310;2023-02-22T13:18:36;93627.94;;;26.82;18.88
11682;BME280;5897;42.640;23.310;2023-02-22T13:21:12;93597.69;;;27.05;18.43
11682;BME280;5897;42.640;23.310;2023-02-22T13:23:47;93630.22;;;27.04;18.29
11682;BME280;5897;42.640;23.310;2023-02-22T13:26:24;93618.81;;;26.74;18.82
11682;BME280;5897;42.640;23.310;2023-02-22T13:28:57;93618.44;;;26.57;19.30
11682;BME280;5897;42.640;23.310;2023-02-22T13:31:42;93621.69;;;26.82;18.62
11682;BME280;5897;42.640;23.310;2023-02-22T13:34:42;93620.53;;;26.98;18.35
11682;BME280;5897;42.640;23.310;2023-02-22T13:37:34;93616.16;;;26.69;18.22
11682;BME280;5897;42.640;23.310;2023-02-22T13:43:22;93621.31;;;26.39;18.60
11682;BME280;5897;42.640;23.310;2023-02-22T13:49:30;93614.28;;;26.38;18.54